createdAt,value
2023-03-17T00:00:11.287Z,100923.59
2023-03-17T00:02:38.641Z,100925.38
2023-03-17T00:05:15.985Z,100940.38
2023-03-17T00:07:42.411Z,100934.25
2023-03-17T00:10:16.464Z,100938.66
2023-03-17T00:12:43.136Z,100932.41
2023-03-17T00:15:10.062Z,100927.13
2023-03-17T00:17:36.469Z,100928.00
2023-03-17T00:20:02.956Z,100924.47
2023-03-17T00:22:29.350Z,100927.09
2023-03-17T00:24:55.764Z,100940.38
2023-03-17T00:27:22.206Z,100933.38
2023-03-17T00:29:48.637Z,100928.06
2023-03-17T00:32:16.908Z,100927.19
2023-03-17T00:34:43.605Z,100921.91
2023-03-17T00:37:12.928Z,100924.56
2023-03-17T00:39:39.649Z,100930.78
2023-03-17T00:42:06.764Z,100917.59
2023-03-17T00:44:34.035Z,100914.97
2023-03-17T00:47:00.589Z,100909.69
2023-03-17T00:49:27.014Z,100904.41
2023-03-17T00:51:53.466Z,100892.06
2023-03-17T00:54:20.229Z,100894.75
2023-03-17T00:56:46.952Z,100885.94
2023-03-17T00:59:36.462Z,100894.78
2023-03-17T01:02:02.936Z,100887.75
2023-03-17T01:04:29.403Z,100896.63
2023-03-17T01:06:55.810Z,100891.38
2023-03-17T01:09:24.054Z,100899.38
2023-03-17T01:11:50.490Z,100895.88
2023-03-17T01:14:17.036Z,100896.75
2023-03-17T01:16:43.562Z,100904.72
2023-03-17T01:19:11.826Z,100910.00
2023-03-17T01:21:38.273Z,100907.41
2023-03-17T01:24:05.293Z,100905.66
2023-03-17T01:26:31.781Z,100902.16
2023-03-17T01:28:58.206Z,100894.22
2023-03-17T01:31:24.751Z,100898.63
2023-03-17T01:33:51.254Z,100892.47
2023-03-17T01:36:17.749Z,100880.16
2023-03-17T01:38:44.222Z,100889.84
2023-03-17T01:41:10.644Z,100882.75
2023-03-17T01:43:37.025Z,100886.28
2023-03-17T01:46:21.609Z,100873.94
2023-03-17T01:49:20.905Z,100876.59
2023-03-17T01:51:53.064Z,100874.00
2023-03-17T01:54:33.369Z,100871.38
2023-03-17T01:57:03.446Z,100867.84
2023-03-17T01:59:33.381Z,100866.09
2023-03-17T02:02:03.239Z,100864.31
2023-03-17T02:04:29.558Z,100870.47
2023-03-17T02:06:58.374Z,100856.38
2023-03-17T02:09:26.143Z,100856.38
2023-03-17T02:11:52.578Z,100838.75
2023-03-17T02:14:19.009Z,100842.19
2023-03-17T02:16:45.504Z,100831.69
2023-03-17T02:19:11.992Z,100827.28
2023-03-17T02:21:42.798Z,100830.78
2023-03-17T02:24:15.577Z,100828.97
2023-03-17T02:26:42.001Z,100827.22
2023-03-17T02:29:08.409Z,100839.56
2023-03-17T02:31:34.833Z,100841.38
2023-03-17T02:34:01.294Z,100844.91
2023-03-17T02:36:27.719Z,100848.44
2023-03-17T02:38:54.156Z,100851.03
2023-03-17T02:41:20.589Z,100843.97
2023-03-17T02:43:46.983Z,100843.97
2023-03-17T02:46:13.470Z,100837.78
2023-03-17T02:48:39.901Z,100836.09
2023-03-17T02:51:06.495Z,100832.56
2023-03-17T02:53:32.884Z,100828.09
2023-03-17T02:55:59.319Z,100827.28
2023-03-17T02:58:25.738Z,100836.97
2023-03-17T03:00:52.160Z,100831.69
2023-03-17T03:03:18.604Z,100833.47
2023-03-17T03:05:45.063Z,100833.47
2023-03-17T03:08:11.451Z,100832.56
2023-03-17T03:10:37.903Z,100824.66
2023-03-17T03:13:04.333Z,100824.63
2023-03-17T03:15:30.831Z,100836.97
2023-03-17T03:17:57.275Z,100848.44
2023-03-17T03:20:23.707Z,100844.03
2023-03-17T03:22:50.135Z,100849.31
2023-03-17T03:25:16.639Z,100844.03
2023-03-17T03:27:43.038Z,100845.78
2023-03-17T03:30:10.169Z,100836.09
2023-03-17T03:32:36.680Z,100830.81
2023-03-17T03:35:03.155Z,100818.47
2023-03-17T03:37:29.711Z,100829.06
2023-03-17T03:39:56.161Z,100827.31
2023-03-17T03:42:22.590Z,100805.34
2023-03-17T03:44:49.033Z,100794.78
2023-03-17T03:47:15.505Z,100787.75
2023-03-17T03:49:41.961Z,100771.91
2023-03-17T03:52:08.377Z,100764.00
2023-03-17T03:54:34.864Z,100765.78
2023-03-17T03:57:01.318Z,100757.88
2023-03-17T03:59:27.699Z,100767.63
2023-03-17T04:01:54.113Z,100780.88
2023-03-17T04:04:20.585Z,100796.81
2023-03-17T04:06:47.025Z,100801.22
2023-03-17T04:09:13.431Z,100782.72
2023-03-17T04:11:39.887Z,100782.72
2023-03-17T04:14:06.286Z,100775.69
2023-03-17T04:16:32.759Z,100769.50
2023-03-17T04:18:59.252Z,100763.34
2023-03-17T04:21:25.726Z,100766.00
2023-03-17T04:23:52.129Z,100764.28
2023-03-17T04:26:18.614Z,100773.13
2023-03-17T04:28:45.115Z,100771.38
2023-03-17T04:31:11.883Z,100774.91
2023-03-17T04:33:38.314Z,100776.72
2023-03-17T04:36:04.983Z,100779.38
2023-03-17T04:38:31.566Z,100779.38
2023-03-17T04:40:57.945Z,100782.88
2023-03-17T04:43:24.538Z,100781.13
2023-03-17T04:45:51.048Z,100770.56
2023-03-17T04:48:17.511Z,100769.63
2023-03-17T04:50:43.957Z,100764.38
2023-03-17T04:53:10.540Z,100768.78
2023-03-17T04:55:37.058Z,100763.50
2023-03-17T04:58:03.624Z,100765.19
2023-03-17T05:00:30.238Z,100759.09
2023-03-17T05:02:56.842Z,100754.72
2023-03-17T05:05:23.264Z,100753.00
2023-03-17T05:07:49.711Z,100748.63
2023-03-17T05:10:16.253Z,100755.66
2023-03-17T05:12:42.664Z,100753.03
2023-03-17T05:15:09.294Z,100751.34
2023-03-17T05:17:35.697Z,100750.47
2023-03-17T05:20:02.171Z,100740.78
2023-03-17T05:22:28.631Z,100733.75
2023-03-17T05:24:55.079Z,100737.28
2023-03-17T05:27:21.525Z,100745.19
2023-03-17T05:29:47.959Z,100736.41
2023-03-17T05:32:14.469Z,100741.72
2023-03-17T05:34:40.945Z,100735.56
2023-03-17T05:37:07.377Z,100725.88
2023-03-17T05:39:33.922Z,100732.03
2023-03-17T05:42:00.335Z,100731.16
2023-03-17T05:44:26.751Z,100728.53
2023-03-17T05:46:53.242Z,100716.22
2023-03-17T05:49:19.738Z,100724.06
2023-03-17T05:51:47.210Z,100725.81
2023-03-17T05:54:13.739Z,100720.53
2023-03-17T05:56:40.178Z,100720.47
2023-03-17T05:59:06.618Z,100717.81
2023-03-17T06:01:33.052Z,100720.44
2023-03-17T06:03:59.468Z,100709.88
2023-03-17T06:06:25.951Z,100724.78
2023-03-17T06:08:52.396Z,100721.25
2023-03-17T06:11:19.224Z,100728.22
2023-03-17T06:13:45.639Z,100731.72
2023-03-17T06:16:12.074Z,100736.94
2023-03-17T06:18:38.662Z,100729.88
2023-03-17T06:21:05.310Z,100730.75
2023-03-17T06:23:31.870Z,100727.25
2023-03-17T06:25:58.269Z,100722.81
2023-03-17T06:28:24.667Z,100728.09
2023-03-17T06:30:51.148Z,100718.34
2023-03-17T06:33:17.631Z,100721.91
2023-03-17T06:35:44.118Z,100725.38
2023-03-17T06:38:10.558Z,100721.78
2023-03-17T06:40:37.032Z,100724.38
2023-03-17T06:43:03.444Z,100719.94
2023-03-17T06:45:30.184Z,100726.94
2023-03-17T06:47:56.817Z,100726.88
2023-03-17T06:50:23.225Z,100737.38
2023-03-17T06:52:49.650Z,100739.94
2023-03-17T06:55:16.196Z,100727.47
2023-03-17T06:57:42.637Z,100737.13
2023-03-17T07:00:09.662Z,100737.91
2023-03-17T07:02:36.118Z,100739.56
2023-03-17T07:05:02.606Z,100733.31
2023-03-17T07:07:29.038Z,100735.78
2023-03-17T07:09:55.416Z,100733.03
2023-03-17T07:12:21.948Z,100727.63
2023-03-17T07:14:48.409Z,100717.78
2023-03-17T07:17:14.944Z,100718.53
2023-03-17T07:19:41.399Z,100722.94
2023-03-17T07:22:09.236Z,100737.94
2023-03-17T07:24:35.646Z,100733.50
2023-03-17T07:27:02.061Z,100727.31
2023-03-17T07:29:28.542Z,100728.09
2023-03-17T07:31:54.971Z,100728.03
2023-03-17T07:34:21.477Z,100729.66
2023-03-17T07:36:47.900Z,100729.53
2023-03-17T07:39:14.344Z,100731.09
2023-03-17T07:41:40.758Z,100729.19
2023-03-17T07:44:07.187Z,100732.63
2023-03-17T07:46:33.658Z,100730.78
2023-03-17T07:49:00.056Z,100721.72
2023-03-17T07:51:26.486Z,100725.25
2023-03-17T07:53:53.085Z,100730.50
2023-03-17T07:56:19.551Z,100723.41
2023-03-17T07:58:45.960Z,100727.75
2023-03-17T08:01:12.469Z,100725.88
2023-03-17T08:03:41.268Z,100713.34
2023-03-17T08:06:08.192Z,100715.72
2023-03-17T08:08:34.595Z,100710.16
2023-03-17T08:11:02.186Z,100707.03
2023-03-17T08:13:33.137Z,100703.09
2023-03-17T08:15:59.775Z,100702.78
2023-03-17T08:18:26.250Z,100685.72
2023-03-17T08:20:52.686Z,100686.69
2023-03-17T08:23:19.542Z,100694.66
2023-03-17T08:25:46.036Z,100701.44
2023-03-17T08:28:12.479Z,100709.16
2023-03-17T08:30:39.377Z,100720.31
2023-03-17T08:33:06.205Z,100719.34
2023-03-17T08:35:33.073Z,100707.59
2023-03-17T08:37:59.660Z,100706.44
2023-03-17T08:40:26.099Z,100703.41
2023-03-17T08:42:52.550Z,100698.84
2023-03-17T08:45:19.112Z,100692.56
2023-03-17T08:47:45.964Z,100687.03
2023-03-17T08:50:16.497Z,100690.91
2023-03-17T08:52:42.937Z,100683.09
2023-03-17T08:55:09.380Z,100689.78
2023-03-17T08:57:36.104Z,100678.56
2023-03-17T09:00:02.933Z,100670.78
2023-03-17T09:02:29.384Z,100669.94
2023-03-17T09:04:55.774Z,100669.16
2023-03-17T09:07:22.194Z,100669.63
2023-03-17T09:09:48.574Z,100668.97
2023-03-17T09:12:15.032Z,100672.06
2023-03-17T09:14:44.422Z,100666.44
2023-03-17T09:17:12.310Z,100655.06
2023-03-17T09:19:38.749Z,100652.22
2023-03-17T09:22:05.242Z,100638.88
2023-03-17T09:24:31.668Z,100639.44
2023-03-17T09:26:58.044Z,100630.94
2023-03-17T09:29:24.480Z,100639.13
2023-03-17T09:31:50.911Z,100639.50
2023-03-17T09:34:17.324Z,100645.19
2023-03-17T09:36:43.780Z,100651.56
2023-03-17T09:39:10.190Z,100656.81
2023-03-17T09:41:59.803Z,100637.47
2023-03-17T09:44:29.140Z,100644.03
2023-03-17T09:47:01.983Z,100648.06
2023-03-17T09:49:47.862Z,100627.25
2023-03-17T09:52:18.884Z,100631.09
2023-03-17T09:54:45.610Z,100622.63
2023-03-17T09:57:27.178Z,100620.78
2023-03-17T10:00:14.412Z,100616.44
2023-03-17T10:02:41.074Z,100617.78
2023-03-17T10:05:16.485Z,100625.41
2023-03-17T10:07:54.847Z,100626.59
2023-03-17T10:10:36.899Z,100623.91
2023-03-17T10:13:07.075Z,100617.81
2023-03-17T10:16:00.922Z,100622.09
2023-03-17T10:18:29.778Z,100639.09
2023-03-17T10:21:01.863Z,100628.28
2023-03-17T10:23:30.515Z,100631.41
2023-03-17T10:25:57.815Z,100632.94
2023-03-17T10:28:31.732Z,100624.25
2023-03-17T10:31:19.227Z,100622.72
2023-03-17T10:33:50.374Z,100620.59
2023-03-17T10:36:17.207Z,100618.56
2023-03-17T10:38:52.824Z,100620.25
2023-03-17T10:41:19.239Z,100612.25
2023-03-17T10:43:47.417Z,100607.66
2023-03-17T10:46:22.026Z,100612.88
2023-03-17T10:48:53.910Z,100621.19
2023-03-17T10:51:31.016Z,100612.41
2023-03-17T10:54:00.310Z,100610.88
2023-03-17T10:56:27.483Z,100611.88
2023-03-17T10:58:54.262Z,100613.50
2023-03-17T11:01:20.618Z,100617.91
2023-03-17T11:03:47.440Z,100616.19
2023-03-17T11:06:15.538Z,100609.22
2023-03-17T11:08:51.839Z,100603.84
2023-03-17T11:11:28.081Z,100607.13
2023-03-17T11:14:05.306Z,100603.41
2023-03-17T11:16:35.195Z,100612.19
2023-03-17T11:19:01.688Z,100615.63
2023-03-17T11:21:32.550Z,100607.19
2023-03-17T11:24:04.924Z,100598.56
2023-03-17T11:26:59.987Z,100593.31
2023-03-17T11:29:26.273Z,100580.28
2023-03-17T11:32:23.683Z,100578.66
2023-03-17T11:35:12.014Z,100570.94
2023-03-17T11:37:38.312Z,100574.44
2023-03-17T11:40:29.437Z,100573.09
2023-03-17T11:43:08.586Z,100571.63
2023-03-17T11:45:50.147Z,100577.91
2023-03-17T11:48:38.522Z,100573.91
2023-03-17T11:51:52.490Z,100574.47
2023-03-17T11:54:31.985Z,100572.78
2023-03-17T11:56:58.871Z,100571.28
2023-03-17T11:59:43.517Z,100568.44
2023-03-17T12:02:35.816Z,100575.91
2023-03-17T12:05:32.076Z,100573.50
2023-03-17T12:08:00.597Z,100562.44
2023-03-17T12:10:40.776Z,100559.00
2023-03-17T12:13:16.931Z,100553.63
2023-03-17T12:15:57.123Z,100559.63
2023-03-17T12:18:26.490Z,100550.53
2023-03-17T12:21:11.265Z,100563.13
2023-03-17T12:24:09.985Z,100549.38
2023-03-17T12:26:40.366Z,100542.25
2023-03-17T12:29:13.450Z,100538.66
2023-03-17T12:31:46.148Z,100541.66
2023-03-17T12:34:25.918Z,100528.13
2023-03-17T12:36:52.471Z,100543.41
2023-03-17T12:39:25.564Z,100534.53
2023-03-17T12:42:07.253Z,100542.16
2023-03-17T12:45:05.719Z,100544.81
2023-03-17T12:47:38.417Z,100525.06
2023-03-17T12:50:14.532Z,100519.06
2023-03-17T12:52:53.128Z,100526.84
2023-03-17T12:55:20.329Z,100520.03
2023-03-17T12:57:47.862Z,100525.31
2023-03-17T13:00:37.128Z,100524.81
2023-03-17T13:03:27.399Z,100513.63
2023-03-17T13:06:01.377Z,100529.66
2023-03-17T13:08:31.827Z,100520.38
2023-03-17T13:11:33.290Z,100526.41
2023-03-17T13:14:23.802Z,100541.16
2023-03-17T13:16:50.227Z,100544.53
2023-03-17T13:19:23.744Z,100544.72
2023-03-17T13:21:59.953Z,100538.53
2023-03-17T13:24:45.907Z,100538.06
2023-03-17T13:27:35.020Z,100537.84
2023-03-17T13:30:23.003Z,100532.34
2023-03-17T13:32:56.255Z,100542.63
2023-03-17T13:35:37.463Z,100527.66
2023-03-17T13:38:22.131Z,100533.22
2023-03-17T13:41:19.561Z,100539.44
2023-03-17T13:43:58.161Z,100524.81
2023-03-17T13:46:36.769Z,100529.41
2023-03-17T13:49:20.754Z,100527.41
2023-03-17T13:52:03.873Z,100521.13
2023-03-17T13:54:32.718Z,100514.50
2023-03-17T13:57:21.351Z,100510.94
2023-03-17T13:59:50.769Z,100515.09
2023-03-17T14:02:17.576Z,100515.63
2023-03-17T14:04:50.916Z,100507.16
2023-03-17T14:07:19.376Z,100505.50
2023-03-17T14:09:45.789Z,100518.75
2023-03-17T14:12:42.536Z,100519.69
2023-03-17T14:15:13.808Z,100512.88
2023-03-17T14:17:55.784Z,100509.81
2023-03-17T14:20:26.135Z,100504.25
2023-03-17T14:22:54.936Z,100511.31
2023-03-17T14:25:26.055Z,100505.06
2023-03-17T14:27:54.128Z,100504.69
2023-03-17T14:30:28.338Z,100491.53
2023-03-17T14:33:01.953Z,100493.16
2023-03-17T14:35:33.210Z,100494.03
2023-03-17T14:38:00.432Z,100504.28
2023-03-17T14:40:28.509Z,100513.16
2023-03-17T14:42:54.922Z,100502.94
2023-03-17T14:45:29.838Z,100499.88
2023-03-17T14:47:56.568Z,100498.16
2023-03-17T14:50:26.304Z,100502.06
2023-03-17T14:52:52.766Z,100497.28
2023-03-17T14:55:19.192Z,100501.66
2023-03-17T14:57:50.285Z,100495.56
2023-03-17T15:00:53.616Z,100497.41
2023-03-17T15:03:21.212Z,100496.81
2023-03-17T15:05:47.837Z,100501.47
2023-03-17T15:08:30.173Z,100500.16
2023-03-17T15:11:00.114Z,100499.47
2023-03-17T15:13:27.283Z,100497.19
2023-03-17T15:15:53.740Z,100495.63
2023-03-17T15:18:20.199Z,100504.84
2023-03-17T15:20:46.703Z,100505.69
2023-03-17T15:23:20.682Z,100509.25
2023-03-17T15:25:48.328Z,100514.41
2023-03-17T15:28:16.226Z,100515.13
2023-03-17T15:30:47.562Z,100514.13
2023-03-17T15:33:23.337Z,100525.53
2023-03-17T15:35:50.214Z,100512.53
2023-03-17T15:38:16.701Z,100499.50
2023-03-17T15:40:43.180Z,100499.13
2023-03-17T15:43:14.073Z,100495.25
2023-03-17T15:45:40.630Z,100498.28
2023-03-17T15:48:15.251Z,100468.09
2023-03-17T15:50:41.724Z,100473.66
2023-03-17T15:53:11.360Z,100468.97
2023-03-17T15:55:37.798Z,100459.94
2023-03-17T15:58:04.216Z,100456.63
2023-03-17T16:00:30.832Z,100473.38
2023-03-17T16:02:59.611Z,100458.00
2023-03-17T16:05:35.460Z,100465.72
2023-03-17T16:08:01.897Z,100449.44
2023-03-17T16:10:29.937Z,100452.13
2023-03-17T16:12:56.487Z,100444.16
2023-03-17T16:15:24.305Z,100443.00
2023-03-17T16:17:54.792Z,100469.66
2023-03-17T16:20:30.359Z,100479.81
2023-03-17T16:23:05.410Z,100491.09
2023-03-17T16:25:32.091Z,100489.78
2023-03-17T16:27:59.843Z,100495.78
2023-03-17T16:30:31.181Z,100500.81
2023-03-17T16:33:00.058Z,100495.00
2023-03-17T16:35:26.524Z,100494.50
2023-03-17T16:37:53.019Z,100505.69
2023-03-17T16:40:20.207Z,100505.31
2023-03-17T16:42:46.765Z,100508.44
2023-03-17T16:45:27.663Z,100500.69
2023-03-17T16:47:54.969Z,100512.59
2023-03-17T16:50:22.832Z,100516.16
2023-03-17T16:52:49.248Z,100519.94
2023-03-17T16:55:15.836Z,100531.03
2023-03-17T16:57:42.758Z,100540.25
2023-03-17T17:00:11.598Z,100532.84
2023-03-17T17:02:38.066Z,100541.38
2023-03-17T17:05:12.575Z,100541.84
2023-03-17T17:07:39.004Z,100551.22
2023-03-17T17:10:05.581Z,100546.06
2023-03-17T17:12:32.025Z,100543.63
2023-03-17T17:14:58.427Z,100534.06
2023-03-17T17:17:24.843Z,100529.09
2023-03-17T17:19:51.266Z,100518.28
2023-03-17T17:22:17.688Z,100492.56
2023-03-17T17:24:44.092Z,100483.03
2023-03-17T17:27:10.514Z,100468.22
2023-03-17T17:29:36.911Z,100451.66
2023-03-17T17:32:03.400Z,100470.03
2023-03-17T17:34:29.796Z,100499.13
2023-03-17T17:36:56.197Z,100516.22
2023-03-17T17:39:22.624Z,100518.19
2023-03-17T17:41:49.022Z,100509.50
2023-03-17T17:44:15.465Z,100519.56
2023-03-17T17:46:41.970Z,100521.44
2023-03-17T17:49:08.389Z,100529.56
2023-03-17T17:51:34.842Z,100537.53
2023-03-17T17:54:01.282Z,100537.66
2023-03-17T17:56:27.697Z,100537.97
2023-03-17T17:58:54.152Z,100539.16
2023-03-17T18:01:20.904Z,100544.75
2023-03-17T18:03:47.448Z,100544.16
2023-03-17T18:06:13.854Z,100540.88
2023-03-17T18:08:40.332Z,100546.59
2023-03-17T18:11:06.749Z,100536.16
2023-03-17T18:13:33.229Z,100539.91
2023-03-17T18:15:59.695Z,100541.78
2023-03-17T18:18:26.156Z,100545.41
2023-03-17T18:20:52.611Z,100542.78
2023-03-17T18:23:19.048Z,100540.97
2023-03-17T18:25:45.433Z,100545.41
2023-03-17T18:28:11.917Z,100551.63
2023-03-17T18:30:38.390Z,100547.28
2023-03-17T18:33:12.795Z,100556.25
2023-03-17T18:35:39.226Z,100549.19
2023-03-17T18:38:05.626Z,100547.47
2023-03-17T18:40:32.060Z,100540.53
2023-03-17T18:42:58.444Z,100535.34
2023-03-17T18:45:26.177Z,100535.44
2023-03-17T18:47:52.603Z,100539.19
2023-03-17T18:50:19.300Z,100547.47
2023-03-17T18:52:45.720Z,100544.84
2023-03-17T18:55:12.827Z,100543.97
2023-03-17T18:57:39.374Z,100557.31
2023-03-17T19:00:08.421Z,100556.25
2023-03-17T19:02:35.361Z,100538.25
2023-03-17T19:05:01.834Z,100537.38
2023-03-17T19:07:28.267Z,100532.16
2023-03-17T19:09:54.793Z,100523.44
2023-03-17T19:12:21.236Z,100527.16
2023-03-17T19:14:47.677Z,100518.38
2023-03-17T19:17:14.081Z,100516.03
2023-03-17T19:19:40.528Z,100520.53
2023-03-17T19:22:06.946Z,100508.72
2023-03-17T19:24:36.211Z,100506.88
2023-03-17T19:27:02.670Z,100506.06
2023-03-17T19:29:29.103Z,100498.25
2023-03-17T19:31:55.664Z,100474.22
2023-03-17T19:34:22.070Z,100465.41
2023-03-17T19:36:48.636Z,100473.47
2023-03-17T19:39:15.101Z,100474.47
2023-03-17T19:41:41.525Z,100480.00
2023-03-17T19:44:08.133Z,100482.78
2023-03-17T19:46:36.915Z,100481.09
2023-03-17T19:49:03.785Z,100486.59
2023-03-17T19:51:30.252Z,100500.03
2023-03-17T19:53:56.642Z,100498.25
2023-03-17T19:56:23.182Z,100491.16
2023-03-17T19:58:49.693Z,100492.84
2023-03-17T20:01:16.181Z,100488.13
2023-03-17T20:03:42.648Z,100483.84
2023-03-17T20:06:10.208Z,100487.59
2023-03-17T20:08:36.805Z,100472.84
2023-03-17T20:11:03.320Z,100468.69
2023-03-17T20:13:29.731Z,100473.50
2023-03-17T20:15:56.205Z,100472.81
2023-03-17T20:18:22.788Z,100480.16
2023-03-17T20:20:52.153Z,100477.75
2023-03-17T20:23:18.716Z,100485.88
2023-03-17T20:25:45.193Z,100488.59
2023-03-17T20:28:12.018Z,100495.75
2023-03-17T20:30:38.867Z,100492.22
2023-03-17T20:33:05.976Z,100497.56
2023-03-17T20:35:32.940Z,100489.75
2023-03-17T20:37:59.405Z,100491.59
2023-03-17T20:40:25.830Z,100486.38
2023-03-17T20:42:52.334Z,100490.09
2023-03-17T20:45:18.941Z,100490.22
2023-03-17T20:47:45.773Z,100493.88
2023-03-17T20:50:12.183Z,100490.53
2023-03-17T20:52:38.686Z,100484.50
2023-03-17T20:55:05.995Z,100479.16
2023-03-17T20:57:33.247Z,100477.25
2023-03-17T20:59:59.672Z,100468.28
2023-03-17T21:02:26.148Z,100469.09
2023-03-17T21:04:52.564Z,100471.66
2023-03-17T21:07:19.723Z,100472.47
2023-03-17T21:09:46.191Z,100476.94
2023-03-17T21:12:19.674Z,100479.66
2023-03-17T21:14:46.752Z,100483.25
2023-03-17T21:17:13.253Z,100477.16
2023-03-17T21:19:39.742Z,100488.88
2023-03-17T21:22:06.232Z,100472.84
2023-03-17T21:24:34.030Z,100473.75
2023-03-17T21:27:01.824Z,100481.78
2023-03-17T21:29:28.480Z,100479.09
2023-03-17T21:31:54.993Z,100479.97
2023-03-17T21:34:21.465Z,100477.25
2023-03-17T21:36:47.873Z,100476.28
2023-03-17T21:39:14.344Z,100478.03
2023-03-17T21:41:40.757Z,100472.78
2023-03-17T21:44:07.233Z,100457.75
2023-03-17T21:46:33.833Z,100465.88
2023-03-17T21:49:00.458Z,100456.31
2023-03-17T21:51:26.887Z,100454.63
2023-03-17T21:53:53.417Z,100465.38
2023-03-17T21:56:20.222Z,100469.00
2023-03-17T21:58:46.673Z,100464.56
2023-03-17T22:01:13.113Z,100474.34
2023-03-17T22:03:39.616Z,100483.25
2023-03-17T22:06:06.489Z,100473.44
2023-03-17T22:08:32.934Z,100479.66
2023-03-17T22:10:59.356Z,100472.63
2023-03-17T22:13:25.773Z,100466.34
2023-03-17T22:15:52.199Z,100469.00
2023-03-17T22:18:18.602Z,100474.56
2023-03-17T22:20:45.027Z,100471.06
2023-03-17T22:23:11.479Z,100470.19
2023-03-17T22:25:37.967Z,100469.38
2023-03-17T22:28:04.404Z,100464.97
2023-03-17T22:30:31.078Z,100471.19
2023-03-17T22:32:57.780Z,100467.69
2023-03-17T22:35:24.275Z,100469.56
2023-03-17T22:37:50.687Z,100466.00
2023-03-17T22:40:18.469Z,100461.75
2023-03-17T22:42:44.905Z,100469.84
2023-03-17T22:45:13.187Z,100465.56
2023-03-17T22:47:39.714Z,100462.19
2023-03-17T22:50:06.367Z,100455.13
2023-03-17T22:52:32.795Z,100454.25
2023-03-17T22:54:59.242Z,100459.59
2023-03-17T22:57:25.643Z,100460.50
2023-03-17T22:59:52.101Z,100463.22
2023-03-17T23:02:18.648Z,100464.16
2023-03-17T23:04:45.142Z,100471.25
2023-03-17T23:07:11.549Z,100479.31
2023-03-17T23:09:37.958Z,100478.56
2023-03-17T23:12:04.570Z,100477.69
2023-03-17T23:14:30.998Z,100490.13
2023-03-17T23:16:57.452Z,100485.59
2023-03-17T23:19:23.925Z,100485.66
2023-03-17T23:21:50.449Z,100484.84
2023-03-17T23:24:16.902Z,100481.25
2023-03-17T23:26:43.328Z,100476.00
2023-03-17T23:29:09.769Z,100473.53
2023-03-17T23:31:36.310Z,100469.13
2023-03-17T23:34:03.676Z,100470.78
2023-03-17T23:36:30.122Z,100470.84
2023-03-17T23:38:56.546Z,100465.56
2023-03-17T23:41:23.000Z,100461.16
2023-03-17T23:43:49.454Z,100463.84
2023-03-17T23:46:15.931Z,100454.91
2023-03-17T23:48:42.807Z,100453.97
2023-03-17T23:51:09.390Z,100458.44
2023-03-17T23:53:35.803Z,100454.97
2023-03-17T23:56:02.428Z,100455.94
2023-03-17T23:58:28.830Z,100466.59
